Time;durP1;ratioP1;P1;durP2;ratioP2;P2;SDS_P1;SDS_P2;PMS_P1;PMS_P2;Temp;Humidity;BMP_temperature;BMP_pressure;BME280_temperature;BME280_humidity;BME280_pressure;Samples;Min_cycle;Max_cycle;Signal;HPM_P1;HPM_P2
2023/04/17 08:01:08;;;;;;;;;;;;;;;5.05;100.00;100223.19;4903519;29;20472;-88
2023/04/17 08:03:34;;;;;;;;;;;;;;;5.04;100.00;100232.84;4917328;29;19958;-89
2023/04/17 08:08:55;;;;;;;;;;;;;;;6.37;100.00;100233.44;4975890;28;19974;-87
2023/04/17 08:11:33;;;;;;;;;;;;;;;;;;;;;
2023/04/17 08:14:36;;;;;;;;;;;;;;;6.83;100.00;100242.19;4995591;28;19922;-88
2023/04/17 08:17:02;;;;;;;;;;;;;;;7.00;100.00;100232.16;4978625;28;19918;-87
2023/04/17 08:19:43;;;;;;;;;;;;;;;7.13;100.00;100242.47;4995627;28;19924;-87
2023/04/17 08:22:33;;;;;;;;;;;;;;;7.23;100.00;100241.38;4996034;28;19922;-88
2023/04/17 08:25:28;;;;;;;;;;;;;;;7.36;100.00;100248.09;4992410;28;20407;-89
2023/04/17 08:28:21;;;;;;;;;;;;;;;7.43;100.00;100244.41;4978369;28;19964;-88
2023/04/17 08:31:09;;;;;;;;;;;;;;;7.49;100.00;100248.69;4995908;28;19925;-89
2023/04/17 08:33:43;;;;;;;;;;;;;;;7.56;100.00;100250.28;4989371;28;19929;-87
2023/04/17 08:36:36;;;;;;;;;;;;;;;7.67;100.00;100250.03;4984415;28;19961;-87
2023/04/17 08:42:46;;;;;;;;;;;;;;;;;;;;;
2023/04/17 08:45:15;;;;;;;;;;;;;;;7.86;100.00;100249.59;4979920;28;19928;-88
2023/04/17 08:48:19;;;;;;;;;;;;;;;;;;;;;
2023/04/17 08:51:13;;;;;;;;;;;;;;;7.97;100.00;100244.91;4979891;28;20389;-87
2023/04/17 08:54:18;;;;;;;;;;;;;;;;;;;;;
2023/04/17 08:57:45;;;;;;;;;;;;;;;8.07;100.00;100245.56;4965075;28;20109;-87
2023/04/17 09:00:09;;;;;;;;;;;;;;;;;;;;;
2023/04/17 09:05:44;;;;;;;;;;;;;;;8.30;100.00;100247.63;5050217;22;19956;-88
2023/04/17 09:08:39;;;;;;;;;;;;;;;8.32;100.00;100243.16;5055826;28;19921;-87
2023/04/17 09:11:38;;;;;;;;;;;;;;;;;;;;;
2023/04/17 09:14:27;;;;;;;;;;;;;;;8.47;100.00;100247.19;5073681;28;20433;-87
2023/04/17 09:17:06;;;;;;;;;;;;;;;8.48;100.00;100241.84;5073590;28;19923;-88
2023/04/17 09:20:17;;;;;;;;;;;;;;;8.52;100.00;100243.53;5074365;28;20011;-89
2023/04/17 09:23:18;;;;;;;;;;;;;;;;;;;;;
2023/04/17 09:26:12;;;;;;;;;;;;;;;8.58;100.00;100236.34;5067617;28;19923;-89
2023/04/17 09:28:34;;;;;;;;;;;;;;;8.60;100.00;100240.69;5071858;28;19916;-89
2023/04/17 09:31:33;;;;;;;;;;;;;;;8.63;100.00;100237.06;5074030;28;20049;-91
2023/04/17 09:34:12;;;;;;;;;;;;;;;8.69;100.00;100248.31;5073909;28;20429;-89
2023/04/17 09:36:50;;;;;;;;;;;;;;;8.69;100.00;100239.53;5073548;28;19916;-89
2023/04/17 09:39:26;;;;;;;;;;;;;;;8.71;100.00;100240.34;5073258;28;19928;-89
2023/04/17 09:42:09;;;;;;;;;;;;;;;8.75;100.00;100244.66;5053813;28;19916;-88
2023/04/17 09:44:36;;;;;;;;;;;;;;;8.79;100.00;100241.03;5073371;28;20282;-88
2023/04/17 09:47:35;;;;;;;;;;;;;;;;;;;;;
2023/04/17 09:50:08;;;;;;;;;;;;;;;8.84;100.00;100246.16;5073647;28;20362;-88
2023/04/17 09:52:34;;;;;;;;;;;;;;;8.86;100.00;100249.66;5073599;28;20026;-88
2023/04/17 09:55:10;;;;;;;;;;;;;;;;;;;;;
2023/04/17 09:57:47;;;;;;;;;;;;;;;8.89;100.00;100244.28;5073007;28;20310;-88
2023/04/17 10:00:36;;;;;;;;;;;;;;;8.93;100.00;100247.69;5073361;28;19917;-89
2023/04/17 10:03:39;;;;;;;;;;;;;;;7.61;100.00;100252.78;5061476;28;19921;-88
2023/04/17 10:14:53;;;;;;;;;;;;;;;6.15;100.00;100248.72;5078621;28;20022;-91
2023/04/17 10:18:00;;;;;;;;;;;;;;;5.95;100.00;100252.53;5082214;28;19928;-89
2023/04/17 10:20:27;;;;;;;;;;;;;;;5.88;100.00;100252.66;5001730;28;20381;-89
2023/04/17 10:22:55;;;;;;;;;;;;;;;5.83;100.00;100247.47;4984571;28;20396;-92
2023/04/17 10:25:21;;;;;;;;;;;;;;;5.74;100.00;100244.97;5024096;28;20252;-88
2023/04/17 10:27:52;;;;;;;;;;;;;;;5.72;100.00;100247.63;5082716;28;19973;-90
2023/04/17 10:30:20;;;;;;;;;;;;;;;5.63;100.00;100251.28;5064840;28;19958;-92
2023/04/17 10:33:12;;;;;;;;;;;;;;;5.55;100.00;100252.28;5082662;28;19920;-91
2023/04/17 10:35:38;;;;;;;;;;;;;;;5.48;100.00;100254.13;5065194;28;19925;-92
2023/04/17 10:38:42;;;;;;;;;;;;;;;5.48;100.00;100250.66;5064953;28;20007;-91
2023/04/17 10:41:39;;;;;;;;;;;;;;;5.45;100.00;100246.28;5078898;28;19912;-93
2023/04/17 10:47:32;;;;;;;;;;;;;;;5.26;100.00;100241.31;4970535;28;19932;-92
2023/04/17 10:50:10;;;;;;;;;;;;;;;5.30;100.00;100243.88;5001945;28;20018;-94
2023/04/17 10:52:44;;;;;;;;;;;;;;;5.17;100.00;100244.06;5041138;28;19931;-94
2023/04/17 10:55:15;;;;;;;;;;;;;;;5.17;100.00;100244.06;5062818;28;19924;-92
2023/04/17 10:58:01;;;;;;;;;;;;;;;5.14;100.00;100241.47;5123917;22;20287;-91
2023/04/17 11:00:28;;;;;;;;;;;;;;;5.12;100.00;100240.59;5034365;28;19924;-92
2023/04/17 11:02:57;;;;;;;;;;;;;;;5.04;100.00;100235.47;5034290;28;19923;-91
2023/04/17 11:05:23;;;;;;;;;;;;;;;5.16;100.00;100234.44;5049940;28;20035;-90
2023/04/17 11:10:56;;;;;;;;;;;;;;;6.15;100.00;100243.47;5048568;22;19934;-90
2023/04/17 11:13:21;;;;;;;;;;;;;;;6.53;100.00;100231.38;5071203;28;19916;-90
2023/04/17 11:15:58;;;;;;;;;;;;;;;6.75;100.00;100238.84;5071317;28;19913;-89
2023/04/17 11:18:25;;;;;;;;;;;;;;;6.94;100.00;100248.13;5082058;28;19920;-90
2023/04/17 11:20:51;;;;;;;;;;;;;;;7.05;100.00;100230.31;5070272;28;19912;-88
2023/04/17 11:23:17;;;;;;;;;;;;;;;7.14;100.00;100233.66;5081888;28;19926;-90
2023/04/17 11:25:43;;;;;;;;;;;;;;;7.20;100.00;100242.28;5081019;28;20024;-90
2023/04/17 11:31:06;;;;;;;;;;;;;;;7.35;100.00;100230.53;5082614;28;19959;-90
2023/04/17 11:33:46;;;;;;;;;;;;;;;7.46;100.00;100235.56;5079035;28;20299;-90
2023/04/17 11:36:15;;;;;;;;;;;;;;;7.54;100.00;100238.03;5081739;28;20279;-90
2023/04/17 11:38:49;;;;;;;;;;;;;;;7.61;100.00;100231.69;5081759;28;20315;-89
2023/04/17 11:41:15;;;;;;;;;;;;;;;7.65;100.00;100228.09;5081323;28;19963;-93
2023/04/17 11:44:00;;;;;;;;;;;;;;;7.70;100.00;100228.84;5082163;28;19965;-94
2023/04/17 11:49:01;;;;;;;;;;;;;;;7.81;100.00;100228.59;5050149;22;19925;-92
2023/04/17 11:51:26;;;;;;;;;;;;;;;7.88;100.00;100229.31;5044908;28;20391;-93
2023/04/17 11:53:52;;;;;;;;;;;;;;;7.92;100.00;100231.84;5023842;28;19917;-88
2023/04/17 11:56:18;;;;;;;;;;;;;;;7.97;100.00;100232.56;5040628;28;19924;-89
2023/04/17 11:58:49;;;;;;;;;;;;;;;8.02;100.00;100227.19;5023124;28;19917;-89
2023/04/17 12:01:18;;;;;;;;;;;;;;;8.08;100.00;100234.09;5024191;28;19917;-89
2023/04/17 12:03:53;;;;;;;;;;;;;;;8.13;100.00;100235.69;5021793;28;20372;-89
2023/04/17 12:06:23;;;;;;;;;;;;;;;8.18;100.00;100228.56;5031989;28;19917;-88
2023/04/17 12:08:58;;;;;;;;;;;;;;;8.20;100.00;100220.59;5022761;28;19960;-88
2023/04/17 12:11:41;;;;;;;;;;;;;;;8.24;100.00;100218.72;5040894;28;19971;-89
2023/04/17 12:14:10;;;;;;;;;;;;;;;8.29;100.00;100212.41;5031280;28;19920;-89
2023/04/17 12:16:48;;;;;;;;;;;;;;;8.34;100.00;100212.28;5023626;28;19928;-88
2023/04/17 12:19:24;;;;;;;;;;;;;;;8.37;100.00;100209.56;5023753;28;19917;-88
2023/04/17 12:21:51;;;;;;;;;;;;;;;8.44;100.00;100210.28;5041492;28;19924;-88
2023/04/17 12:24:24;;;;;;;;;;;;;;;8.48;100.00;100207.53;5041774;28;19963;-88
2023/04/17 12:26:50;;;;;;;;;;;;;;;8.48;100.00;100207.53;5021240;28;19917;-88
2023/04/17 12:29:20;;;;;;;;;;;;;;;8.50;100.00;100205.72;5041113;28;19963;-88
2023/04/17 12:31:45;;;;;;;;;;;;;;;8.56;100.00;100206.47;5032021;28;19991;-88
2023/04/17 12:34:20;;;;;;;;;;;;;;;8.58;100.00;100202.84;5041477;28;19925;-89
2023/04/17 12:36:49;;;;;;;;;;;;;;;8.63;100.00;100197.44;5042731;28;20344;-89
2023/04/17 12:39:15;;;;;;;;;;;;;;;8.63;100.00;100195.69;5041532;28;19917;-89
2023/04/17 12:41:43;;;;;;;;;;;;;;;8.66;100.00;100197.34;5021031;28;19927;-90
2023/04/17 12:44:08;;;;;;;;;;;;;;;8.65;100.00;100198.28;5023192;28;19916;-89
2023/04/17 12:46:37;;;;;;;;;;;;;;;8.69;100.00;100197.28;5023366;28;19943;-89
2023/04/17 12:49:27;;;;;;;;;;;;;;;8.75;100.00;100189.16;5026631;28;19978;-88
2023/04/17 12:55:02;;;;;;;;;;;;;;;;;;;;;
2023/04/17 12:57:39;;;;;;;;;;;;;;;8.83;100.00;100195.09;5044187;28;19923;-89
2023/04/17 13:00:35;;;;;;;;;;;;;;;;;;;;;
2023/04/17 13:03:32;;;;;;;;;;;;;;;8.88;100.00;100200.25;5044415;28;19932;-89
2023/04/17 13:06:02;;;;;;;;;;;;;;;8.91;100.00;100205.44;5041597;28;19921;-88
2023/04/17 13:08:30;;;;;;;;;;;;;;;7.76;100.00;100212.88;5023645;28;19944;-89
2023/04/17 13:10:58;;;;;;;;;;;;;;;6.91;100.00;100208.69;5043765;28;19924;-89
2023/04/17 13:13:24;;;;;;;;;;;;;;;6.54;100.00;100219.94;5043980;28;20478;-88
2023/04/17 13:16:02;;;;;;;;;;;;;;;6.28;100.00;100216.03;5050621;28;19970;-88
2023/04/17 13:18:29;;;;;;;;;;;;;;;6.15;100.00;100214.53;5035004;28;19917;-88
2023/04/17 13:20:58;;;;;;;;;;;;;;;5.96;100.00;100212.19;5044365;28;19928;-89
2023/04/17 13:23:26;;;;;;;;;;;;;;;5.88;100.00;100214.06;5025724;28;19927;-88
2023/04/17 13:25:51;;;;;;;;;;;;;;;5.79;100.00;100209.84;5024875;28;19916;-88
2023/04/17 13:28:19;;;;;;;;;;;;;;;5.73;100.00;100202.06;5044226;28;19924;-88
2023/04/17 13:30:46;;;;;;;;;;;;;;;5.61;100.00;100211.00;5025030;28;19953;-88
2023/04/17 13:33:32;;;;;;;;;;;;;;;5.62;100.00;100206.63;5026252;28;19924;-88
2023/04/17 13:36:00;;;;;;;;;;;;;;;5.54;100.00;100209.38;5043478;28;19966;-87
2023/04/17 13:38:29;;;;;;;;;;;;;;;5.44;100.00;100203.38;5025670;28;19917;-88
2023/04/17 13:41:07;;;;;;;;;;;;;;;;;;;;;
2023/04/17 13:43:41;;;;;;;;;;;;;;;5.41;100.00;100211.31;5043585;28;19923;-88
2023/04/17 13:46:20;;;;;;;;;;;;;;;;;;;;;
2023/04/17 13:48:59;;;;;;;;;;;;;;;;;;;;;
2023/04/17 13:52:05;;;;;;;;;;;;;;;5.29;100.00;100198.34;5043674;28;20394;-88
2023/04/17 13:54:39;;;;;;;;;;;;;;;5.17;100.00;100203.75;5043531;28;19975;-88
2023/04/17 13:59:58;;;;;;;;;;;;;;;5.16;100.00;100194.16;5031919;28;19971;-88
2023/04/17 14:02:24;;;;;;;;;;;;;;;5.11;100.00;100191.59;5043417;28;19924;-88
2023/04/17 14:04:54;;;;;;;;;;;;;;;5.04;100.00;100187.31;5025263;28;19925;-88
2023/04/17 14:07:19;;;;;;;;;;;;;;;4.99;100.00;100191.75;5025130;28;19917;-88
2023/04/17 14:09:44;;;;;;;;;;;;;;;5.84;100.00;100194.00;5042295;28;19927;-87
2023/04/17 14:12:19;;;;;;;;;;;;;;;6.33;100.00;100193.16;5043432;28;20012;-88
2023/04/17 14:14:49;;;;;;;;;;;;;;;6.62;100.00;100190.81;5043295;28;19921;-88
2023/04/17 14:17:26;;;;;;;;;;;;;;;6.81;100.00;100193.94;5043029;28;19923;-90
2023/04/17 14:19:51;;;;;;;;;;;;;;;6.96;100.00;100185.72;5043374;28;20300;-87
2023/04/17 14:22:19;;;;;;;;;;;;;;;7.11;100.00;100186.28;5043288;28;19921;-86
2023/04/17 14:24:47;;;;;;;;;;;;;;;7.19;100.00;100187.84;5023898;28;19960;-88
2023/04/17 14:27:17;;;;;;;;;;;;;;;7.30;100.00;100186.75;5043058;28;20008;-88
2023/04/17 14:29:45;;;;;;;;;;;;;;;7.38;100.00;100175.09;5024199;28;19921;-88
2023/04/17 14:32:12;;;;;;;;;;;;;;;7.48;100.00;100178.38;5042924;28;20007;-89
2023/04/17 14:34:40;;;;;;;;;;;;;;;7.51;100.00;100183.59;5025200;28;20035;-89
2023/04/17 14:37:40;;;;;;;;;;;;;;;7.60;100.00;100179.88;5042935;28;19916;-92
2023/04/17 14:40:06;;;;;;;;;;;;;;;7.71;100.00;100180.47;5022551;28;19920;-89
2023/04/17 14:42:34;;;;;;;;;;;;;;;7.77;100.00;100182.06;5024449;28;19917;-89
2023/04/17 14:44:59;;;;;;;;;;;;;;;7.81;100.00;100184.59;5042520;28;19913;-89
2023/04/17 14:47:27;;;;;;;;;;;;;;;7.85;100.00;100182.78;5042834;28;20429;-88
2023/04/17 14:49:55;;;;;;;;;;;;;;;7.89;100.00;100178.28;5043264;28;19917;-88
2023/04/17 14:52:23;;;;;;;;;;;;;;;7.96;100.00;100191.28;5042950;28;19925;-89
2023/04/17 14:54:48;;;;;;;;;;;;;;;8.02;100.00;100192.88;5045030;28;19931;-89
2023/04/17 14:57:16;;;;;;;;;;;;;;;8.05;100.00;100189.31;5025192;28;19921;-90
2023/04/17 14:59:47;;;;;;;;;;;;;;;8.09;100.00;100183.91;5046585;28;19921;-89
2023/04/17 15:02:19;;;;;;;;;;;;;;;8.13;100.00;100193.47;5043652;28;19924;-88
2023/04/17 15:04:46;;;;;;;;;;;;;;;8.22;100.00;100180.91;5026221;28;19920;-88
2023/04/17 15:07:14;;;;;;;;;;;;;;;8.25;100.00;100186.13;5043016;28;19928;-88
2023/04/17 15:09:39;;;;;;;;;;;;;;;8.29;100.00;100180.72;5041214;28;19925;-88
2023/04/17 15:12:05;;;;;;;;;;;;;;;8.34;100.00;100175.31;5041285;28;20340;-88
2023/04/17 15:14:30;;;;;;;;;;;;;;;8.39;100.00;100178.69;5043351;28;19936;-88
2023/04/17 15:16:57;;;;;;;;;;;;;;;8.41;100.00;100176.91;5043958;28;20339;-88
2023/04/17 15:19:22;;;;;;;;;;;;;;;8.44;100.00;100179.50;5024461;28;19916;-87
2023/04/17 15:21:47;;;;;;;;;;;;;;;8.45;100.00;100173.28;5042836;28;20276;-88
2023/04/17 15:24:13;;;;;;;;;;;;;;;8.49;100.00;100176.72;5043875;28;19917;-88
2023/04/17 15:26:38;;;;;;;;;;;;;;;8.54;100.00;100182.72;5023520;28;20368;-88
2023/04/17 15:29:12;;;;;;;;;;;;;;;8.58;100.00;100179.06;5045092;28;19920;-88
2023/04/17 15:31:57;;;;;;;;;;;;;;;;;;;;;
2023/04/17 15:34:38;;;;;;;;;;;;;;;;;;;;;
2023/04/17 15:40:12;;;;;;;;;;;;;;;8.69;100.00;100170.84;4991013;28;20793;-89
2023/04/17 15:42:38;;;;;;;;;;;;;;;8.72;100.00;100170.78;5042452;28;19917;-89
2023/04/17 15:45:04;;;;;;;;;;;;;;;8.75;100.00;100165.41;5023439;28;19953;-90
2023/04/17 15:53:46;;;;;;;;;;;;;;;8.80;100.00;100167.91;5009773;28;19925;-88
2023/04/17 15:56:32;;;;;;;;;;;;;;;8.83;100.00;100163.38;5021591;28;20443;-89
2023/04/17 16:08:37;;;;;;;;;;;;;;;8.88;100.00;100161.47;4946421;28;19919;-89
2023/04/17 16:11:11;;;;;;;;;;;;;;;8.88;100.00;100163.25;5019679;28;19917;-89
2023/04/17 16:13:49;;;;;;;;;;;;;;;;;;;;;
2023/04/17 16:16:17;;;;;;;;;;;;;;;8.90;100.00;100159.66;5022349;28;19921;-91
2023/04/17 16:19:04;;;;;;;;;;;;;;;8.84;100.00;100153.69;5004057;28;19926;-90
2023/04/17 16:21:57;;;;;;;;;;;;;;;7.21;100.00;100164.09;5012065;28;20373;-92
2023/04/17 16:24:49;;;;;;;;;;;;;;;6.60;100.00;100159.25;5027323;28;19917;-93
2023/04/17 16:27:14;;;;;;;;;;;;;;;6.41;100.00;100168.44;5022848;28;19923;-90
2023/04/17 16:29:40;;;;;;;;;;;;;;;6.25;100.00;100171.34;5029277;28;20016;-88
2023/04/17 16:32:05;;;;;;;;;;;;;;;6.09;100.00;100162.00;5027077;28;19932;-88
2023/04/17 16:38:01;;;;;;;;;;;;;;;5.90;100.00;100171.97;5021248;28;19947;-92
2023/04/17 16:40:28;;;;;;;;;;;;;;;5.78;100.00;100173.06;5023504;28;19921;-88
2023/04/17 16:45:53;;;;;;;;;;;;;;;5.62;100.00;100168.03;5623603;23;19925;-87
2023/04/17 16:48:19;;;;;;;;;;;;;;;5.62;100.00;100170.66;5047023;28;19924;-89
2023/04/17 16:50:49;;;;;;;;;;;;;;;5.49;100.00;100169.16;5048035;28;19924;-90
2023/04/17 16:53:17;;;;;;;;;;;;;;;5.54;100.00;100172.56;5065269;28;19920;-89
2023/04/17 16:55:42;;;;;;;;;;;;;;;5.48;100.00;100175.28;5045697;28;20013;-86
2023/04/17 16:58:17;;;;;;;;;;;;;;;5.40;100.00;100177.16;5064786;28;20021;-87
2023/04/17 17:00:42;;;;;;;;;;;;;;;5.37;100.00;100182.47;5032125;28;19917;-86
2023/04/17 17:03:07;;;;;;;;;;;;;;;5.21;100.00;100180.06;5032531;28;19921;-85
2023/04/17 17:05:32;;;;;;;;;;;;;;;5.23;100.00;100187.91;5024602;28;19933;-87
2023/04/17 17:07:58;;;;;;;;;;;;;;;5.19;100.00;100181.84;5032283;28;20415;-88
2023/04/17 17:13:31;;;;;;;;;;;;;;;5.08;100.00;100184.63;5007556;28;20361;-89
2023/04/17 17:15:57;;;;;;;;;;;;;;;5.03;100.00;100186.44;5032236;28;19940;-88
2023/04/17 17:18:22;;;;;;;;;;;;;;;5.03;100.00;100186.44;5032280;28;20269;-86
2023/04/17 17:21:11;;;;;;;;;;;;;;;5.03;100.00;100196.09;5015535;28;19940;-89
2023/04/17 17:23:39;;;;;;;;;;;;;;;5.39;100.00;100183.31;5031992;28;19913;-88
2023/04/17 17:26:36;;;;;;;;;;;;;;;6.10;100.00;100187.44;5039785;28;19920;-89
2023/04/17 17:29:01;;;;;;;;;;;;;;;6.50;100.00;100194.56;5044347;28;19923;-89
2023/04/17 17:31:29;;;;;;;;;;;;;;;6.67;100.00;100192.47;5066180;28;19921;-93
2023/04/17 17:33:56;;;;;;;;;;;;;;;6.84;100.00;100191.25;5046244;28;20351;-88
2023/04/17 17:36:29;;;;;;;;;;;;;;;6.96;100.00;100190.13;5066555;28;19924;-90
2023/04/17 17:38:55;;;;;;;;;;;;;;;7.11;100.00;100196.84;5064351;28;19920;-92
2023/04/17 17:41:28;;;;;;;;;;;;;;;7.18;100.00;100196.66;5062813;28;19921;-89
2023/04/17 17:43:56;;;;;;;;;;;;;;;7.26;100.00;100196.50;5069811;28;20039;-91
2023/04/17 17:46:23;;;;;;;;;;;;;;;7.30;100.00;100192.88;5072535;28;19924;-88
2023/04/17 17:48:48;;;;;;;;;;;;;;;7.39;100.00;100200.56;5083029;28;20003;-88
2023/04/17 17:54:12;;;;;;;;;;;;;;;7.56;100.00;100194.91;5061568;28;19973;-87
2023/04/17 17:56:37;;;;;;;;;;;;;;;7.62;100.00;100193.88;5081263;28;20334;-90
2023/04/17 17:59:06;;;;;;;;;;;;;;;7.70;100.00;100198.97;5083649;28;19959;-87
2023/04/17 18:01:41;;;;;;;;;;;;;;;7.74;100.00;100183.03;5082159;28;20342;-88
2023/04/17 18:04:06;;;;;;;;;;;;;;;7.80;100.00;100196.09;5082955;28;19943;-88
2023/04/17 18:06:31;;;;;;;;;;;;;;;7.84;100.00;100196.88;5083080;28;20352;-88
2023/04/17 18:08:57;;;;;;;;;;;;;;;7.91;100.00;100190.50;5084238;28;19920;-87
2023/04/17 18:11:32;;;;;;;;;;;;;;;7.97;100.00;100193.00;5081906;28;19967;-91
2023/04/17 18:14:10;;;;;;;;;;;;;;;8.03;100.00;100191.13;5081790;28;19988;-88
2023/04/17 18:16:36;;;;;;;;;;;;;;;8.12;100.00;100196.13;5036046;28;20292;-89
2023/04/17 18:19:05;;;;;;;;;;;;;;;8.15;100.00;100199.59;5039500;28;19951;-90
2023/04/17 18:21:33;;;;;;;;;;;;;;;8.22;100.00;100191.47;5028396;28;20431;-90
2023/04/17 18:23:59;;;;;;;;;;;;;;;8.25;100.00;100196.69;5023143;28;20410;-89
2023/04/17 18:26:26;;;;;;;;;;;;;;;8.29;100.00;100198.34;5034235;28;19952;-90
2023/04/17 18:28:59;;;;;;;;;;;;;;;8.31;100.00;100202.69;5037749;28;19924;-89
2023/04/17 18:31:26;;;;;;;;;;;;;;;8.37;100.00;100199.00;5022088;28;20030;-86
2023/04/17 18:33:54;;;;;;;;;;;;;;;8.37;100.00;100199.84;5023385;28;19917;-90
2023/04/17 18:36:22;;;;;;;;;;;;;;;8.39;100.00;100199.81;5039492;28;19917;-88
2023/04/17 18:38:52;;;;;;;;;;;;;;;8.43;100.00;100203.25;5023101;28;20284;-88
2023/04/17 18:41:20;;;;;;;;;;;;;;;8.45;100.00;100206.75;5060643;28;19930;-91
2023/04/17 18:44:14;;;;;;;;;;;;;;;8.47;100.00;100207.56;5080757;28;19995;-89
2023/04/17 18:46:40;;;;;;;;;;;;;;;8.48;100.00;100196.97;5055941;28;19951;-90
2023/04/17 18:49:07;;;;;;;;;;;;;;;8.51;100.00;100210.09;5079227;28;19964;-88
2023/04/17 18:51:33;;;;;;;;;;;;;;;8.53;100.00;100212.69;5057410;28;20282;-89
2023/04/17 18:54:03;;;;;;;;;;;;;;;8.54;100.00;100215.28;5080732;28;20015;-89
2023/04/17 18:56:29;;;;;;;;;;;;;;;8.58;100.00;100207.28;5079520;28;19923;-89
2023/04/17 18:59:00;;;;;;;;;;;;;;;8.59;100.00;100209.03;5059799;28;19921;-88
2023/04/17 19:02:09;;;;;;;;;;;;;;;8.61;100.00;100210.69;5080861;28;19943;-90
2023/04/17 19:04:36;;;;;;;;;;;;;;;8.65;100.00;100206.22;5079064;28;19925;-88
2023/04/17 19:07:04;;;;;;;;;;;;;;;8.66;100.00;100206.16;5080303;28;19923;-88
2023/04/17 19:09:47;;;;;;;;;;;;;;;8.70;100.00;100209.59;5080919;28;19916;-89
2023/04/17 19:12:15;;;;;;;;;;;;;;;8.70;100.00;100207.78;5080524;28;19921;-88
2023/04/17 19:14:40;;;;;;;;;;;;;;;8.70;100.00;100213.06;5080973;28;19920;-88
2023/04/17 19:17:08;;;;;;;;;;;;;;;8.74;100.00;100208.56;5079890;28;20383;-87
2023/04/17 19:19:38;;;;;;;;;;;;;;;8.73;100.00;100210.34;5087778;22;20397;-88
2023/04/17 19:22:22;;;;;;;;;;;;;;;;;;;;;
2023/04/17 19:25:20;;;;;;;;;;;;;;;8.79;100.00;100206.69;5049480;28;19920;-90
2023/04/17 19:27:47;;;;;;;;;;;;;;;8.80;100.00;100212.81;5045617;28;19921;-87
2023/04/17 19:30:41;;;;;;;;;;;;;;;8.82;100.00;100209.25;5051721;28;20287;-90
2023/04/17 19:33:07;;;;;;;;;;;;;;;8.85;100.00;100216.19;5040091;28;20256;-92
2023/04/17 19:35:35;;;;;;;;;;;;;;;8.86;100.00;100204.72;5033155;28;19974;-89
2023/04/17 19:38:51;;;;;;;;;;;;;;;;;;;;;
2023/04/17 19:41:20;;;;;;;;;;;;;;;8.91;100.00;100208.09;5050251;28;19921;-91
2023/04/17 19:44:13;;;;;;;;;;;;;;;8.92;100.00;100201.91;5031349;28;19967;-93
2023/04/17 19:47:11;;;;;;;;;;;;;;;;;;;;;
2023/04/17 19:49:31;;;;;;;;;;;;;;;7.21;100.00;100216.78;5047805;28;20360;-90
2023/04/17 19:51:58;;;;;;;;;;;;;;;6.67;100.00;100210.91;5032805;28;19932;-88
2023/04/17 19:54:23;;;;;;;;;;;;;;;6.41;100.00;100205.28;5051307;28;19936;-88
2023/04/17 19:56:48;;;;;;;;;;;;;;;6.26;100.00;100214.34;5050436;28;19916;-87
2023/04/17 19:59:14;;;;;;;;;;;;;;;6.16;100.00;100203.13;5055316;28;19979;-87
2023/04/17 20:01:57;;;;;;;;;;;;;;;5.99;100.00;100206.88;5054411;28;20337;-88
2023/04/17 20:04:43;;;;;;;;;;;;;;;5.90;100.00;100207.00;5054380;28;19921;-89
2023/04/17 20:09:59;;;;;;;;;;;;;;;5.72;100.00;100209.97;5039626;28;19923;-88
2023/04/17 20:12:24;;;;;;;;;;;;;;;5.67;100.00;100215.28;5030461;28;20364;-87
2023/04/17 20:14:51;;;;;;;;;;;;;;;5.53;100.00;100206.75;5054833;28;19966;-87
2023/04/17 20:17:19;;;;;;;;;;;;;;;5.48;100.00;100209.44;5055496;28;19924;-86
2023/04/17 20:19:45;;;;;;;;;;;;;;;5.45;100.00;100197.22;5037473;28;20074;-87
2023/04/17 20:22:11;;;;;;;;;;;;;;;5.38;100.00;100200.84;5055478;28;19971;-88
2023/04/17 20:24:36;;;;;;;;;;;;;;;5.38;100.00;100202.63;5054852;28;19921;-87
2023/04/17 20:27:02;;;;;;;;;;;;;;;5.32;100.00;100202.69;5036580;28;20011;-88
2023/04/17 20:29:29;;;;;;;;;;;;;;;5.29;100.00;100203.59;5037415;28;19923;-87
2023/04/17 20:31:55;;;;;;;;;;;;;;;5.25;100.00;100202.78;5037352;28;19929;-88
2023/04/17 20:34:20;;;;;;;;;;;;;;;5.18;100.00;100202.88;5055156;28;19917;-87
2023/04/17 20:36:45;;;;;;;;;;;;;;;5.09;100.00;100201.28;5037218;28;19921;-87
2023/04/17 20:39:11;;;;;;;;;;;;;;;5.11;100.00;100204.75;5037000;28;19924;-86
2023/04/17 20:41:36;;;;;;;;;;;;;;;5.03;100.00;100198.72;5036088;28;19917;-88
2023/04/17 20:44:09;;;;;;;;;;;;;;;4.98;100.00;100196.16;5054340;28;19916;-88
2023/04/17 20:46:34;;;;;;;;;;;;;;;5.71;100.00;100190.69;5054497;28;20445;-87
2023/04/17 20:49:00;;;;;;;;;;;;;;;6.27;100.00;100193.25;5054919;28;19999;-87
2023/04/17 20:51:26;;;;;;;;;;;;;;;6.56;100.00;100194.47;5054804;28;19920;-88
2023/04/17 20:53:51;;;;;;;;;;;;;;;6.74;100.00;100195.84;5036766;28;19917;-87
2023/04/17 20:56:18;;;;;;;;;;;;;;;6.91;100.00;100180.56;5035752;28;19924;-88
2023/04/17 20:58:43;;;;;;;;;;;;;;;7.03;100.00;100179.41;5053978;28;20043;-87
2023/04/17 21:01:08;;;;;;;;;;;;;;;7.17;100.00;100179.09;5054737;28;20316;-88
2023/04/17 21:03:34;;;;;;;;;;;;;;;7.26;100.00;100178.06;5054720;28;19917;-86
2023/04/17 21:05:59;;;;;;;;;;;;;;;7.35;100.00;100177.81;5054229;28;20019;-88
2023/04/17 21:08:25;;;;;;;;;;;;;;;7.43;100.00;100180.28;5053626;28;19978;-87
2023/04/17 21:10:50;;;;;;;;;;;;;;;7.51;100.00;100177.47;5035259;28;19923;-88
2023/04/17 21:13:15;;;;;;;;;;;;;;;7.58;100.00;100171.16;5054566;28;19920;-87
2023/04/17 21:15:41;;;;;;;;;;;;;;;7.66;100.00;100170.94;5054423;28;20278;-87
2023/04/17 21:18:06;;;;;;;;;;;;;;;7.76;100.00;100169.81;5054373;28;19928;-87
2023/04/17 21:20:31;;;;;;;;;;;;;;;7.82;100.00;100170.53;5036229;28;19928;-86
2023/04/17 21:22:57;;;;;;;;;;;;;;;7.90;100.00;100172.09;5036365;28;19925;-86
2023/04/17 21:25:22;;;;;;;;;;;;;;;7.95;100.00;100167.56;5035397;28;19924;-87
2023/04/17 21:27:47;;;;;;;;;;;;;;;8.00;100.00;100169.16;5054418;28;19921;-88
2023/04/17 21:30:13;;;;;;;;;;;;;;;8.04;100.00;100172.63;5053980;28;20364;-89
2023/04/17 21:32:40;;;;;;;;;;;;;;;8.08;100.00;100168.13;5036272;28;19928;-88
2023/04/17 21:38:14;;;;;;;;;;;;;;;;;;;;;
2023/04/17 21:40:39;;;;;;;;;;;;;;;8.24;100.00;100155.38;5052647;28;19923;-89
2023/04/17 21:43:09;;;;;;;;;;;;;;;8.28;100.00;100165.81;5053973;28;20019;-88
2023/04/17 21:45:35;;;;;;;;;;;;;;;8.30;100.00;100161.34;5053017;28;19921;-88
2023/04/17 21:48:02;;;;;;;;;;;;;;;8.33;100.00;100163.03;5053736;28;20032;-89
2023/04/17 21:50:27;;;;;;;;;;;;;;;8.36;100.00;100166.47;5035776;28;19917;-88
2023/04/17 21:52:53;;;;;;;;;;;;;;;8.37;100.00;100160.25;5053832;28;19923;-86
2023/04/17 21:55:18;;;;;;;;;;;;;;;8.42;100.00;100161.91;5052556;28;19913;-87
2023/04/17 21:57:46;;;;;;;;;;;;;;;8.45;100.00;100162.72;5053658;28;19960;-88
2023/04/17 22:00:11;;;;;;;;;;;;;;;8.47;100.00;100155.63;5035813;28;19921;-88
2023/04/17 22:02:36;;;;;;;;;;;;;;;8.48;100.00;100157.34;5035622;28;19978;-87
2023/04/17 22:05:02;;;;;;;;;;;;;;;8.50;100.00;100160.84;5053683;28;19916;-87
2023/04/17 22:07:27;;;;;;;;;;;;;;;8.53;100.00;100160.72;5035381;28;19917;-87
2023/04/17 22:09:52;;;;;;;;;;;;;;;8.54;100.00;100151.91;5052314;28;19928;-89
2023/04/17 22:12:20;;;;;;;;;;;;;;;8.57;100.00;100155.34;5035494;28;19924;-88
2023/04/17 22:14:48;;;;;;;;;;;;;;;8.60;100.00;100150.88;5053412;28;20287;-89
2023/04/17 22:17:14;;;;;;;;;;;;;;;8.63;100.00;100149.88;5035273;28;19917;-88
2023/04/17 22:19:40;;;;;;;;;;;;;;;8.64;100.00;100151.63;5034450;28;19923;-88
2023/04/17 22:22:05;;;;;;;;;;;;;;;8.65;100.00;100146.31;5052440;28;19924;-86
2023/04/17 22:24:30;;;;;;;;;;;;;;;8.68;100.00;100147.97;5053137;28;19921;-87
2023/04/17 22:26:56;;;;;;;;;;;;;;;8.70;100.00;100151.47;5034149;28;20383;-87
2023/04/17 22:29:21;;;;;;;;;;;;;;;8.72;100.00;100152.28;5052911;28;19921;-86
2023/04/17 22:31:47;;;;;;;;;;;;;;;8.73;100.00;100156.66;5052825;28;20386;-87
2023/04/17 22:34:13;;;;;;;;;;;;;;;8.75;100.00;100154.81;5034973;28;20007;-87
2023/04/17 22:36:38;;;;;;;;;;;;;;;8.75;100.00;100160.13;5052970;28;20031;-87
2023/04/17 22:39:03;;;;;;;;;;;;;;;8.77;100.00;100157.41;5051833;28;19912;-87
2023/04/17 22:41:28;;;;;;;;;;;;;;;8.80;100.00;100154.69;5033815;28;19971;-87